createdAt,value
2023-04-09T00:01:04.221Z,7.83
2023-04-09T00:03:32.184Z,8.07
2023-04-09T00:06:00.196Z,9.00
2023-04-09T00:08:29.615Z,11.37
2023-04-09T00:10:59.101Z,10.73
2023-04-09T00:13:38.697Z,9.23
2023-04-09T00:16:08.441Z,11.53
2023-04-09T00:18:37.642Z,10.77
2023-04-09T00:21:07.194Z,9.30
2023-04-09T00:23:36.774Z,11.73
2023-04-09T00:26:07.725Z,13.30
2023-04-09T00:28:36.048Z,13.43
2023-04-09T00:31:04.024Z,11.83
2023-04-09T00:33:31.933Z,9.53
2023-04-09T00:35:59.950Z,11.30
2023-04-09T00:38:28.058Z,8.80
2023-04-09T00:40:57.637Z,10.87
2023-04-09T00:43:25.498Z,10.03
2023-04-09T00:45:53.550Z,13.00
2023-04-09T00:48:23.790Z,11.83
2023-04-09T00:50:52.174Z,11.57
2023-04-09T00:53:21.017Z,12.50
2023-04-09T00:55:48.892Z,8.33
2023-04-09T00:58:20.675Z,9.30
2023-04-09T01:00:48.674Z,9.10
2023-04-09T01:03:17.184Z,11.13
2023-04-09T01:05:55.009Z,12.23
2023-04-09T01:08:38.850Z,11.83
2023-04-09T01:11:15.850Z,11.77
2023-04-09T01:13:53.782Z,11.80
2023-04-09T01:16:24.788Z,12.40
2023-04-09T01:18:59.220Z,11.70
2023-04-09T01:21:32.028Z,10.07
2023-04-09T01:24:08.714Z,11.70
2023-04-09T01:26:58.357Z,9.90
2023-04-09T01:29:36.777Z,9.93
2023-04-09T01:32:08.243Z,12.20
2023-04-09T01:34:38.623Z,10.67
2023-04-09T01:37:07.566Z,10.67
2023-04-09T01:39:38.006Z,12.13
2023-04-09T01:42:09.680Z,10.53
2023-04-09T01:44:40.412Z,10.97
2023-04-09T01:47:09.585Z,11.77
2023-04-09T01:49:38.541Z,12.63
2023-04-09T01:52:07.209Z,12.40
2023-04-09T01:54:35.051Z,12.10
2023-04-09T01:57:03.225Z,12.50
2023-04-09T01:59:31.451Z,9.43
2023-04-09T02:02:06.791Z,12.73
2023-04-09T02:04:36.788Z,13.20
2023-04-09T02:07:11.279Z,12.87
2023-04-09T02:09:41.481Z,14.90
2023-04-09T02:12:13.595Z,12.73
2023-04-09T02:14:42.224Z,12.80
2023-04-09T02:17:11.370Z,12.70
2023-04-09T02:19:40.640Z,13.13
2023-04-09T02:22:08.828Z,10.77
2023-04-09T02:24:37.457Z,14.43
2023-04-09T02:27:06.168Z,13.80
2023-04-09T02:29:34.665Z,13.07
2023-04-09T02:32:03.609Z,11.83
2023-04-09T02:34:32.831Z,12.50
2023-04-09T02:37:00.744Z,12.73
2023-04-09T02:39:28.542Z,13.50
2023-04-09T02:41:57.856Z,12.17
2023-04-09T02:44:27.970Z,11.87
2023-04-09T02:46:57.159Z,13.93
2023-04-09T02:49:25.079Z,10.27
2023-04-09T02:51:54.363Z,12.97
2023-04-09T02:54:22.402Z,11.53
2023-04-09T02:56:50.318Z,11.47
2023-04-09T02:59:18.396Z,10.63
2023-04-09T03:01:46.487Z,11.13
2023-04-09T03:04:14.724Z,13.23
2023-04-09T03:06:42.700Z,12.40
2023-04-09T03:09:11.985Z,13.50
2023-04-09T03:11:40.276Z,13.60
2023-04-09T03:14:08.074Z,14.33
2023-04-09T03:16:35.927Z,13.83
2023-04-09T03:19:03.842Z,13.67
2023-04-09T03:21:32.035Z,13.03
2023-04-09T03:24:00.201Z,13.90
2023-04-09T03:26:36.083Z,12.27
2023-04-09T03:29:07.064Z,11.77
2023-04-09T03:31:35.139Z,12.07
2023-04-09T03:34:03.088Z,11.10
2023-04-09T03:36:34.375Z,12.40
2023-04-09T03:39:10.389Z,13.33
2023-04-09T03:41:43.952Z,12.80
2023-04-09T03:44:15.758Z,12.03
2023-04-09T03:47:06.601Z,11.80
2023-04-09T03:49:36.560Z,9.83
2023-04-09T03:52:26.715Z,11.13
2023-04-09T03:55:04.470Z,11.47
2023-04-09T03:57:33.971Z,8.80
2023-04-09T04:00:02.431Z,8.80
2023-04-09T04:02:40.106Z,8.80
2023-04-09T04:05:12.162Z,12.40
2023-04-09T04:07:46.256Z,11.37
2023-04-09T04:10:19.471Z,11.67
2023-04-09T04:12:49.836Z,10.03
2023-04-09T04:15:24.743Z,13.43
2023-04-09T04:17:56.432Z,12.27
2023-04-09T04:20:37.048Z,9.47
2023-04-09T04:23:09.551Z,9.70
2023-04-09T04:25:43.082Z,12.20
2023-04-09T04:28:16.396Z,12.27
2023-04-09T04:30:44.331Z,12.40
2023-04-09T04:33:12.645Z,11.63
2023-04-09T04:35:48.907Z,12.07
2023-04-09T04:38:41.263Z,11.67
2023-04-09T04:41:16.153Z,12.17
2023-04-09T04:43:51.990Z,11.03
2023-04-09T04:46:23.359Z,10.53
2023-04-09T04:48:51.613Z,10.33
2023-04-09T04:51:20.261Z,11.53
2023-04-09T04:54:00.874Z,13.37
2023-04-09T04:56:29.273Z,10.40
2023-04-09T04:59:05.319Z,9.20
2023-04-09T05:01:45.464Z,10.20
2023-04-09T05:04:14.494Z,11.83
2023-04-09T05:06:42.402Z,9.67
2023-04-09T05:09:14.714Z,8.70
2023-04-09T05:11:54.961Z,10.83
2023-04-09T05:14:25.396Z,11.03
2023-04-09T05:16:53.510Z,10.13
2023-04-09T05:19:25.419Z,10.30
2023-04-09T05:21:59.272Z,9.83
2023-04-09T05:24:27.182Z,9.90
2023-04-09T05:26:54.991Z,9.77
2023-04-09T05:29:24.672Z,12.20
2023-04-09T05:31:52.576Z,11.10
2023-04-09T05:34:29.237Z,11.33
2023-04-09T05:36:58.110Z,11.73
2023-04-09T05:39:26.960Z,10.63
2023-04-09T05:41:56.260Z,12.37
2023-04-09T05:44:38.828Z,12.63
2023-04-09T05:47:14.492Z,11.53
2023-04-09T05:49:57.026Z,11.67
2023-04-09T05:52:25.067Z,12.00
2023-04-09T05:54:53.912Z,12.80
2023-04-09T05:57:30.253Z,13.03
2023-04-09T06:00:03.301Z,12.63
2023-04-09T06:02:44.762Z,11.60
2023-04-09T06:05:12.930Z,10.53
2023-04-09T06:07:40.776Z,11.40
2023-04-09T06:10:09.751Z,11.70
2023-04-09T06:12:37.773Z,12.43
2023-04-09T06:15:09.012Z,11.57
2023-04-09T06:17:37.126Z,13.13
2023-04-09T06:20:06.505Z,12.00
2023-04-09T06:22:35.448Z,11.50
2023-04-09T06:25:06.180Z,11.97
2023-04-09T06:27:34.547Z,9.67
2023-04-09T06:30:05.044Z,12.27
2023-04-09T06:32:46.980Z,11.13
2023-04-09T06:35:21.489Z,13.17
2023-04-09T06:37:58.723Z,11.40
2023-04-09T06:40:53.979Z,11.90
2023-04-09T06:43:34.892Z,10.33
2023-04-09T06:46:21.590Z,10.87
2023-04-09T06:48:50.889Z,9.93
2023-04-09T06:51:20.919Z,11.20
2023-04-09T06:53:49.841Z,10.50
2023-04-09T06:56:18.151Z,10.10
2023-04-09T06:58:48.418Z,11.50
2023-04-09T07:01:17.438Z,9.37
2023-04-09T07:03:45.798Z,8.20
2023-04-09T07:06:15.302Z,8.97
2023-04-09T07:08:44.332Z,10.13
2023-04-09T07:11:12.204Z,10.63
2023-04-09T07:13:40.078Z,10.67
2023-04-09T07:16:07.982Z,9.37
2023-04-09T07:18:35.822Z,10.70
2023-04-09T07:21:04.437Z,10.07
2023-04-09T07:23:37.211Z,10.75
2023-04-09T07:26:05.371Z,11.13
2023-04-09T07:28:33.343Z,10.48
2023-04-09T07:31:02.890Z,10.77
2023-04-09T07:33:31.189Z,11.65
2023-04-09T07:35:59.226Z,10.77
2023-04-09T07:38:30.444Z,10.90
2023-04-09T07:41:00.805Z,9.90
2023-04-09T07:43:28.982Z,11.52
2023-04-09T07:45:57.088Z,9.73
2023-04-09T07:48:25.256Z,9.63
2023-04-09T07:50:55.457Z,9.63
2023-04-09T07:53:23.307Z,9.55
2023-04-09T07:55:52.421Z,9.70
2023-04-09T07:58:21.569Z,10.40
2023-04-09T08:00:49.512Z,9.88
2023-04-09T08:03:17.686Z,10.20
2023-04-09T08:05:48.228Z,9.80
2023-04-09T08:08:16.068Z,9.90
2023-04-09T08:10:43.924Z,9.27
2023-04-09T08:13:12.124Z,8.63
2023-04-09T08:15:41.513Z,8.40
2023-04-09T08:18:09.490Z,7.78
2023-04-09T08:20:38.187Z,6.65
2023-04-09T08:23:06.164Z,6.00
2023-04-09T08:25:34.361Z,6.68
2023-04-09T08:28:02.343Z,6.20
2023-04-09T08:30:34.184Z,5.25
2023-04-09T08:33:03.680Z,5.05
2023-04-09T08:35:31.886Z,5.10
2023-04-09T08:38:00.189Z,5.40
2023-04-09T08:40:28.442Z,5.25
2023-04-09T08:42:57.796Z,5.40
2023-04-09T08:45:25.930Z,6.15
2023-04-09T08:47:54.001Z,5.40
2023-04-09T08:50:23.753Z,5.37
2023-04-09T08:52:52.048Z,5.00
2023-04-09T08:55:20.308Z,6.05
2023-04-09T08:57:48.329Z,5.88
2023-04-09T09:00:18.402Z,5.65
2023-04-09T09:03:03.448Z,6.15
2023-04-09T09:05:40.099Z,5.75
2023-04-09T09:08:09.055Z,5.47
2023-04-09T09:10:41.956Z,4.50
2023-04-09T09:13:21.308Z,7.60
2023-04-09T09:15:52.805Z,4.50
2023-04-09T09:18:20.941Z,4.80
2023-04-09T09:20:50.185Z,5.93
2023-04-09T09:23:18.013Z,4.10
2023-04-09T09:25:45.884Z,3.88
2023-04-09T09:28:15.063Z,4.25
2023-04-09T09:30:43.160Z,4.45
2023-04-09T09:33:12.227Z,4.85
2023-04-09T09:35:52.169Z,5.05
2023-04-09T09:38:20.050Z,4.90
2023-04-09T09:40:48.598Z,6.22
2023-04-09T09:43:16.522Z,5.05
2023-04-09T09:45:47.768Z,5.37
2023-04-09T09:48:16.327Z,5.47
2023-04-09T09:50:47.001Z,5.55
2023-04-09T09:53:23.698Z,5.32
2023-04-09T09:55:57.304Z,5.65
2023-04-09T09:58:29.157Z,6.78
2023-04-09T10:00:57.936Z,7.32
2023-04-09T10:03:28.205Z,6.70
2023-04-09T10:05:57.544Z,6.78
2023-04-09T10:08:28.014Z,7.00
2023-04-09T10:10:56.312Z,7.25
2023-04-09T10:13:32.496Z,7.38
2023-04-09T10:16:01.718Z,7.40
2023-04-09T10:18:33.540Z,6.93
2023-04-09T10:21:07.922Z,7.30
2023-04-09T10:23:40.318Z,7.03
2023-04-09T10:26:11.352Z,7.30
2023-04-09T10:28:40.189Z,7.60
2023-04-09T10:31:10.563Z,6.93
2023-04-09T10:33:40.538Z,7.17
2023-04-09T10:36:13.525Z,5.90
2023-04-09T10:38:48.292Z,4.78
2023-04-09T10:41:24.111Z,4.97
2023-04-09T10:43:54.842Z,6.35
2023-04-09T10:46:30.483Z,5.00
2023-04-09T10:49:11.797Z,4.60
2023-04-09T10:51:40.158Z,5.28
2023-04-09T10:54:46.117Z,4.22
2023-04-09T10:57:19.869Z,4.30
2023-04-09T10:59:49.724Z,5.53
2023-04-09T11:02:57.432Z,4.00
2023-04-09T11:05:44.312Z,3.60
2023-04-09T11:08:13.954Z,3.57
2023-04-09T11:10:49.801Z,4.20
2023-04-09T11:13:20.098Z,4.63
2023-04-09T11:15:48.204Z,4.13
2023-04-09T11:18:17.138Z,3.80
2023-04-09T11:20:45.036Z,3.67
2023-04-09T11:23:14.776Z,4.20
2023-04-09T11:25:42.779Z,4.03
2023-04-09T11:28:12.536Z,3.90
2023-04-09T11:30:41.465Z,7.30
2023-04-09T11:33:09.649Z,9.73
2023-04-09T11:35:37.967Z,7.57
2023-04-09T11:38:10.092Z,5.03
2023-04-09T11:40:43.532Z,4.90
2023-04-09T11:43:12.849Z,4.80
2023-04-09T11:45:40.723Z,4.93
2023-04-09T11:48:08.995Z,4.70
2023-04-09T11:50:37.748Z,4.43
2023-04-09T11:53:17.444Z,4.30
2023-04-09T11:55:51.010Z,4.35
2023-04-09T11:58:23.706Z,4.63
2023-04-09T12:00:54.277Z,4.25
